AirNav   TITAN Aviation Fuels
 
 954 users online  

LL45 Lindell Loveless Airport
Gillespie, Illinois, USA

GOING TO GILLESPIE?


FAA INFORMATION EFFECTIVE 04 NOVEMBER 2021

Location

FAA Identifier: LL45
Lat/Long: 39-10-56.1700N 089-49-18.3460W
39-10.936167N 089-49.305767W
39.1822694,-89.8217628
(estimated)
Elevation: 657 ft. / 200.3 m (surveyed)
Variation: 01E (1985)
From city: 3 miles N of GILLESPIE, IL
Time zone: UTC -5 (UTC -6 during Standard Time)
Zip code: 62033

Airport Operations

Airport use: Private use. Permission required prior to landing
Activation date: 03/1967
Control tower: no
ARTCC: KANSAS CITY CENTER
FSS: SAINT LOUIS FLIGHT SERVICE STATION
Attendance: UNATNDD
Wind indicator: yes
Segmented circle: no
Lights: FOR RWY LGTS CALL 217-827-2108.

Airport Communications

WX AWOS-3 at 3LF (7 nm E): 118.175 (217-324-4735)

Nearby radio navigation aids

VOR radial/distance  VOR name  Freq  Var
TOYr006/27.0TROY VORTAC116.0004E
VLAr276/31.1VANDALIA VOR/DME114.3004E
STLr057/36.3ST LOUIS VORTAC117.4001E

 
NDB name  Hdg/Dist  Freq  Var  ID
CIVIC MEMORIAL033/20.526301WCVM -.-. ...- --

Airport Services

Fuel available: 100LL
Airframe service: NONE
Powerplant service: NONE

Runway Information

Runway N/S

Dimensions: 3650 x 130 ft. / 1113 x 40 m
Surface: turf
Runway edge lights: low intensity
RUNWAY N  RUNWAY S
Traffic pattern: leftleft

Airport Ownership and Management from official FAA records

Ownership: Privately-owned
Owner: LINDELL LOVELESS
17564 HONEY CREEK RD
GILLESPIE, IL 62033
Phone (217) 827-2108
Manager: MATT COLE
12979 HICKORY GROVE RD
GILLESPIE, IL 62033
Phone (217) 827-2108
EMAIL ADDRESS: MCOLE73@HOTMAIL.COM (ALL LOWER CASE)

Airport Operational Statistics

Aircraft based on the field: 3
Single engine airplanes: 2
Multi engine airplanes: 1
    

Additional Remarks

FOR CD CTC ST LOUIS APCH AT 314-890-1018.

Instrument Procedures

There are no published instrument procedures at LL45.

Some nearby airports with instrument procedures:

3LF - Litchfield Municipal Airport (7 nm E)
KALN - St Louis Regional Airport (20 nm SW)
KGRE - Greenville Airport (29 nm SE)
KTAZ - Taylorville Municipal Airport (31 nm NE)
KSET - St Charles County Smartt Airport (32 nm SW)
 
Loc | Ops | Rwys | IFR | FBO | Links
Com | Nav | Svcs | Stats | Notes
Area around LL45 (Lindell Loveless Airport)
 
Road maps at: MapQuest Bing Google
 
Aerial photo
No photo
 
Sectional chart

 
Airport distance calculator
Flying to Lindell Loveless Airport? Find the distance to fly.

From to LL45

Sunrise and sunset
Times for 30-Nov-2021
 Local
(UTC-6)
 Zulu
(UTC)
Morning civil twilight06:3012:30
Sunrise07:0013:00
Sunset16:3622:36
Evening civil twilight17:0623:06

Current date and time
Zulu (UTC)  01-Dec-2021 04:26:30
Local (UTC-6)  30-Nov-2021 22:26:30
 
METAR
K3LF 
7nm E 
010415Z AUTO 00000KT 4SM BR OVC120 03/02 A3011 RMK AO2 T00320020
TAF
KSTL 
36nm SW 
302039Z 3021/0124 VRB05KT P6SM BKN200 FM302300 VRB03KT P6SM BKN130 FM011600 20007KT P6SM BKN090
KBLV 
39nm S 
010000Z 0100/0206 VRB03KT 9999 SCT100 QNH3004INS BECMG 0106/0107 14006KT 9999 SCT035 BKN050 QNH2998INS BECMG 0112/0113 17006KT 9999 BKN010 OVC015 QNH2992INS TEMPO 0112/0116 9000 BR VCSH BKN007 OVC010 BECMG 0120/0121 25006KT 9999 SCT015 QNH2990INS BECMG 0200/0201 26009KT 9999 SKC QNH2996INS TX15/0121Z TN04/0104Z
KCPS 
40nm SW 
301728Z 3018/0118 01005KT P6SM SCT250 FM302300 VRB03KT P6SM BKN120 FM011600 20007KT P6SM BKN090
KSPI 
41nm N 
301721Z 3018/0118 28006KT P6SM SCT200 FM010200 VRB03KT P6SM SCT120 FM010800 14004KT P6SM VCSH BKN100 FM011300 16010KT P6SM SCT025 BKN060
NOTAMs
Click for the latest NOTAMs
NOTAMs are issued by the DoD/FAA and will open in a separate window not controlled by AirNav.

 

 
 

Would you like to see your business listed on this page?

 If your business provides an interesting product or service to pilots, flight crews, aircraft, or users of the Lindell Loveless Airport, you should consider listing it here.  To start the listing process, click on the button below
 
Add a business
 

Other Pages about Lindell Loveless Airport

Update a link
 
Copyright © AirNav, LLC. All rights reserved. Privacy Policy  Contact